sensor_id;sensor_type;location;lat;lon;timestamp;pressure;altitude;pressure_sealevel;temperature;humidity
73101;BME280;61288;53.446;-2.266;2023-04-25T00:01:23;101520.84;;;2.48;74.36
73101;BME280;61288;53.446;-2.266;2023-04-25T00:03:49;101520.81;;;2.41;74.63
73101;BME280;61288;53.446;-2.266;2023-04-25T00:06:18;101522.47;;;2.33;75.10
73101;BME280;61288;53.446;-2.266;2023-04-25T00:08:44;101525.84;;;2.27;75.15
73101;BME280;61288;53.446;-2.266;2023-04-25T00:11:10;101530.06;;;2.22;75.84
73101;BME280;61288;53.446;-2.266;2023-04-25T00:13:35;101528.28;;;2.15;76.30
73101;BME280;61288;53.446;-2.266;2023-04-25T00:16:02;101525.72;;;2.12;75.96
73101;BME280;61288;53.446;-2.266;2023-04-25T00:18:29;101518.88;;;2.08;76.67
73101;BME280;61288;53.446;-2.266;2023-04-25T00:20:55;101518.03;;;2.07;76.73
73101;BME280;61288;53.446;-2.266;2023-04-25T00:23:21;101519.69;;;2.04;75.75
73101;BME280;61288;53.446;-2.266;2023-04-25T00:25:48;101514.56;;;1.99;76.26
73101;BME280;61288;53.446;-2.266;2023-04-25T00:28:14;101517.91;;;1.95;76.86
73101;BME280;61288;53.446;-2.266;2023-04-25T00:30:41;101516.16;;;1.86;76.94
73101;BME280;61288;53.446;-2.266;2023-04-25T00:33:06;101517.78;;;1.81;77.35
73101;BME280;61288;53.446;-2.266;2023-04-25T00:35:34;101519.41;;;1.72;77.00
73101;BME280;61288;53.446;-2.266;2023-04-25T00:38:00;101511.69;;;1.66;77.28
73101;BME280;61288;53.446;-2.266;2023-04-25T00:40:26;101524.41;;;1.62;77.27
73101;BME280;61288;53.446;-2.266;2023-04-25T00:42:52;101513.28;;;1.55;77.01
73101;BME280;61288;53.446;-2.266;2023-04-25T00:45:18;101520.06;;;1.51;77.54
73101;BME280;61288;53.446;-2.266;2023-04-25T00:47:45;101517.41;;;1.43;77.20
73101;BME280;61288;53.446;-2.266;2023-04-25T00:50:11;101515.66;;;1.36;78.02
73101;BME280;61288;53.446;-2.266;2023-04-25T00:52:42;101511.28;;;1.27;79.02
73101;BME280;61288;53.446;-2.266;2023-04-25T00:55:10;101514.66;;;1.23;79.57
73101;BME280;61288;53.446;-2.266;2023-04-25T00:57:36;101516.25;;;1.15;79.91
73101;BME280;61288;53.446;-2.266;2023-04-25T01:00:04;101519.59;;;1.09;80.12
73101;BME280;61288;53.446;-2.266;2023-04-25T01:02:32;101517.84;;;1.05;80.55
73101;BME280;61288;53.446;-2.266;2023-04-25T01:04:57;101523.75;;;0.99;79.92
73101;BME280;61288;53.446;-2.266;2023-04-25T01:07:24;101515.16;;;0.94;79.46
73101;BME280;61288;53.446;-2.266;2023-04-25T01:09:52;101522.78;;;0.91;80.28
73101;BME280;61288;53.446;-2.266;2023-04-25T01:12:17;101525.28;;;0.86;80.38
73101;BME280;61288;53.446;-2.266;2023-04-25T01:14:43;101516.72;;;0.83;82.03
73101;BME280;61288;53.446;-2.266;2023-04-25T01:17:10;101526.00;;;0.78;81.39
73101;BME280;61288;53.446;-2.266;2023-04-25T01:19:36;101528.53;;;0.76;81.98
73101;BME280;61288;53.446;-2.266;2023-04-25T01:22:03;101524.31;;;0.78;83.04
73101;BME280;61288;53.446;-2.266;2023-04-25T01:24:31;101528.56;;;0.79;82.24
73101;BME280;61288;53.446;-2.266;2023-04-25T01:26:58;101525.09;;;0.73;81.04
73101;BME280;61288;53.446;-2.266;2023-04-25T01:29:24;101530.13;;;0.68;81.67
73101;BME280;61288;53.446;-2.266;2023-04-25T01:31:51;101523.28;;;0.64;81.79
73101;BME280;61288;53.446;-2.266;2023-04-25T01:34:18;101526.63;;;0.60;81.94
73101;BME280;61288;53.446;-2.266;2023-04-25T01:36:43;101524.06;;;0.60;83.17
73101;BME280;61288;53.446;-2.266;2023-04-25T01:39:09;101524.00;;;0.53;82.23
73101;BME280;61288;53.446;-2.266;2023-04-25T01:41:35;101531.59;;;0.50;83.35
73101;BME280;61288;53.446;-2.266;2023-04-25T01:44:01;101533.22;;;0.47;84.01
73101;BME280;61288;53.446;-2.266;2023-04-25T01:46:28;101523.78;;;0.39;84.07
73101;BME280;61288;53.446;-2.266;2023-04-25T01:48:53;101533.84;;;0.32;83.62
73101;BME280;61288;53.446;-2.266;2023-04-25T01:51:20;101538.00;;;0.25;84.47
73101;BME280;61288;53.446;-2.266;2023-04-25T01:53:45;101541.31;;;0.19;83.70
73101;BME280;61288;53.446;-2.266;2023-04-25T01:56:11;101536.09;;;0.13;84.05
73101;BME280;61288;53.446;-2.266;2023-04-25T01:58:36;101534.34;;;0.09;85.18
73101;BME280;61288;53.446;-2.266;2023-04-25T02:01:03;101539.34;;;0.03;85.05
73101;BME280;61288;53.446;-2.266;2023-04-25T02:03:30;101535.03;;;-0.02;85.63
73101;BME280;61288;53.446;-2.266;2023-04-25T02:05:57;101543.47;;;-0.04;86.18
73101;BME280;61288;53.446;-2.266;2023-04-25T02:08:22;101544.19;;;-0.13;85.76
73101;BME280;61288;53.446;-2.266;2023-04-25T02:10:48;101552.53;;;-0.20;85.34
73101;BME280;61288;53.446;-2.266;2023-04-25T02:13:14;101536.41;;;-0.21;88.43
73101;BME280;61288;53.446;-2.266;2023-04-25T02:15:39;101539.78;;;-0.22;87.12
73101;BME280;61288;53.446;-2.266;2023-04-25T02:18:06;101540.66;;;-0.20;87.33
73101;BME280;61288;53.446;-2.266;2023-04-25T02:20:32;101544.03;;;-0.21;87.71
73101;BME280;61288;53.446;-2.266;2023-04-25T02:22:57;101543.06;;;-0.27;86.57
73101;BME280;61288;53.446;-2.266;2023-04-25T02:25:23;101546.41;;;-0.32;87.15
73101;BME280;61288;53.446;-2.266;2023-04-25T02:27:48;101542.19;;;-0.31;88.20
73101;BME280;61288;53.446;-2.266;2023-04-25T02:30:14;101544.63;;;-0.36;88.46
73101;BME280;61288;53.446;-2.266;2023-04-25T02:32:40;101537.81;;;-0.37;87.82
73101;BME280;61288;53.446;-2.266;2023-04-25T02:35:06;101540.38;;;-0.35;87.45
73101;BME280;61288;53.446;-2.266;2023-04-25T02:37:33;101548.06;;;-0.34;87.64
73101;BME280;61288;53.446;-2.266;2023-04-25T02:39:59;101540.41;;;-0.34;87.32
73101;BME280;61288;53.446;-2.266;2023-04-25T02:42:24;101542.97;;;-0.34;89.53
73101;BME280;61288;53.446;-2.266;2023-04-25T02:44:50;101540.41;;;-0.34;89.03
73101;BME280;61288;53.446;-2.266;2023-04-25T02:47:15;101543.91;;;-0.28;88.65
73101;BME280;61288;53.446;-2.266;2023-04-25T02:49:41;101551.66;;;-0.22;89.93
73101;BME280;61288;53.446;-2.266;2023-04-25T02:52:06;101549.97;;;-0.20;88.86
73101;BME280;61288;53.446;-2.266;2023-04-25T02:54:32;101548.25;;;-0.23;88.54
73101;BME280;61288;53.446;-2.266;2023-04-25T02:56:57;101544.00;;;-0.22;88.84
73101;BME280;61288;53.446;-2.266;2023-04-25T02:59:23;101546.59;;;-0.19;89.48
73101;BME280;61288;53.446;-2.266;2023-04-25T03:01:48;101553.34;;;-0.21;89.44
73101;BME280;61288;53.446;-2.266;2023-04-25T03:04:15;101550.75;;;-0.24;89.62
73101;BME280;61288;53.446;-2.266;2023-04-25T03:06:41;101549.09;;;-0.22;89.35
73101;BME280;61288;53.446;-2.266;2023-04-25T03:09:06;101539.78;;;-0.22;89.84
73101;BME280;61288;53.446;-2.266;2023-04-25T03:11:32;101544.78;;;-0.28;88.68
73101;BME280;61288;53.446;-2.266;2023-04-25T03:13:57;101545.47;;;-0.37;88.88
73101;BME280;61288;53.446;-2.266;2023-04-25T03:16:23;101551.31;;;-0.41;89.67
73101;BME280;61288;53.446;-2.266;2023-04-25T03:18:49;101554.50;;;-0.51;88.32
73101;BME280;61288;53.446;-2.266;2023-04-25T03:21:16;101556.16;;;-0.55;88.97
73101;BME280;61288;53.446;-2.266;2023-04-25T03:23:42;101561.97;;;-0.62;89.95
73101;BME280;61288;53.446;-2.266;2023-04-25T03:26:07;101561.91;;;-0.64;89.57
73101;BME280;61288;53.446;-2.266;2023-04-25T03:28:33;101567.81;;;-0.66;89.65
73101;BME280;61288;53.446;-2.266;2023-04-25T03:30:59;101560.97;;;-0.69;90.98
73101;BME280;61288;53.446;-2.266;2023-04-25T03:33:24;101559.16;;;-0.75;89.32
73101;BME280;61288;53.446;-2.266;2023-04-25T03:35:51;101567.50;;;-0.82;90.32
73101;BME280;61288;53.446;-2.266;2023-04-25T03:38:17;101557.16;;;-0.90;89.14
73101;BME280;61288;53.446;-2.266;2023-04-25T03:40:42;101556.25;;;-0.93;90.40
73101;BME280;61288;53.446;-2.266;2023-04-25T03:43:08;101567.09;;;-1.02;89.98
73101;BME280;61288;53.446;-2.266;2023-04-25T03:45:33;101568.66;;;-1.07;91.73
73101;BME280;61288;53.446;-2.266;2023-04-25T03:48:00;101583.88;;;-1.10;90.69
73101;BME280;61288;53.446;-2.266;2023-04-25T03:50:25;101568.44;;;-1.17;90.43
73101;BME280;61288;53.446;-2.266;2023-04-25T03:52:51;101572.69;;;-1.17;91.34
73101;BME280;61288;53.446;-2.266;2023-04-25T03:55:17;101568.38;;;-1.20;90.77
73101;BME280;61288;53.446;-2.266;2023-04-25T03:57:44;101557.31;;;-1.22;90.95
73101;BME280;61288;53.446;-2.266;2023-04-25T04:00:10;101564.88;;;-1.25;90.70
73101;BME280;61288;53.446;-2.266;2023-04-25T04:02:35;101572.38;;;-1.31;90.78
73101;BME280;61288;53.446;-2.266;2023-04-25T04:05:03;101573.97;;;-1.36;91.00
73101;BME280;61288;53.446;-2.266;2023-04-25T04:07:28;101582.38;;;-1.39;92.19
73101;BME280;61288;53.446;-2.266;2023-04-25T04:09:54;101584.06;;;-1.39;91.93
73101;BME280;61288;53.446;-2.266;2023-04-25T04:12:20;101585.78;;;-1.38;92.38
73101;BME280;61288;53.446;-2.266;2023-04-25T04:14:45;101590.06;;;-1.36;92.87
73101;BME280;61288;53.446;-2.266;2023-04-25T04:17:11;101593.41;;;-1.38;92.36
73101;BME280;61288;53.446;-2.266;2023-04-25T04:19:36;101587.53;;;-1.36;92.66
73101;BME280;61288;53.446;-2.266;2023-04-25T04:22:02;101587.63;;;-1.31;93.74
73101;BME280;61288;53.446;-2.266;2023-04-25T04:24:28;101588.41;;;-1.35;92.14
73101;BME280;61288;53.446;-2.266;2023-04-25T04:26:53;101591.63;;;-1.42;91.27
73101;BME280;61288;53.446;-2.266;2023-04-25T04:29:19;101596.66;;;-1.44;92.00
73101;BME280;61288;53.446;-2.266;2023-04-25T04:31:56;101592.50;;;-1.40;93.40
73101;BME280;61288;53.446;-2.266;2023-04-25T04:34:22;101591.56;;;-1.46;92.20
73101;BME280;61288;53.446;-2.266;2023-04-25T04:36:49;101595.69;;;-1.49;92.51
73101;BME280;61288;53.446;-2.266;2023-04-25T04:39:15;101595.75;;;-1.48;93.21
73101;BME280;61288;53.446;-2.266;2023-04-25T04:41:41;101596.53;;;-1.50;nan
73101;BME280;61288;53.446;-2.266;2023-04-25T04:44:08;101599.84;;;-1.53;92.42
73101;BME280;61288;53.446;-2.266;2023-04-25T04:46:34;101603.09;;;-1.58;91.76
73101;BME280;61288;53.446;-2.266;2023-04-25T04:49:10;101603.81;;;-1.64;91.78
73101;BME280;61288;53.446;-2.266;2023-04-25T04:51:37;101598.72;;;-1.64;92.88
73101;BME280;61288;53.446;-2.266;2023-04-25T04:54:03;101594.50;;;-1.64;93.26
73101;BME280;61288;53.446;-2.266;2023-04-25T04:56:29;101585.34;;;-1.57;94.05
73101;BME280;61288;53.446;-2.266;2023-04-25T04:58:57;101594.81;;;-1.51;93.21
73101;BME280;61288;53.446;-2.266;2023-04-25T05:01:23;101596.47;;;-1.52;92.81
73101;BME280;61288;53.446;-2.266;2023-04-25T05:03:49;101600.72;;;-1.52;93.87
73101;BME280;61288;53.446;-2.266;2023-04-25T05:06:16;101605.75;;;-1.54;93.23
73101;BME280;61288;53.446;-2.266;2023-04-25T05:08:42;101608.25;;;-1.55;93.39
73101;BME280;61288;53.446;-2.266;2023-04-25T05:11:07;101615.00;;;-1.56;93.01
73101;BME280;61288;53.446;-2.266;2023-04-25T05:13:33;101619.25;;;-1.56;92.82
73101;BME280;61288;53.446;-2.266;2023-04-25T05:15:58;101624.34;;;-1.56;93.35
73101;BME280;61288;53.446;-2.266;2023-04-25T05:18:23;101624.34;;;-1.56;92.72
73101;BME280;61288;53.446;-2.266;2023-04-25T05:20:58;101626.06;;;-1.54;93.77
73101;BME280;61288;53.446;-2.266;2023-04-25T05:23:24;101622.75;;;-1.51;92.89
73101;BME280;61288;53.446;-2.266;2023-04-25T05:25:49;101618.72;;;-1.43;93.97
73101;BME280;61288;53.446;-2.266;2023-04-25T05:28:14;101613.78;;;-1.37;93.69
73101;BME280;61288;53.446;-2.266;2023-04-25T05:30:40;101625.72;;;-1.34;93.39
73101;BME280;61288;53.446;-2.266;2023-04-25T05:33:06;101627.38;;;-1.35;92.73
73101;BME280;61288;53.446;-2.266;2023-04-25T05:35:32;101625.75;;;-1.33;92.98
73101;BME280;61288;53.446;-2.266;2023-04-25T05:37:57;101629.16;;;-1.32;93.76
73101;BME280;61288;53.446;-2.266;2023-04-25T05:40:23;101628.31;;;-1.31;93.07
73101;BME280;61288;53.446;-2.266;2023-04-25T05:42:48;101636.84;;;-1.29;93.28
73101;BME280;61288;53.446;-2.266;2023-04-25T05:45:14;101640.34;;;-1.24;93.50
73101;BME280;61288;53.446;-2.266;2023-04-25T05:47:40;101647.28;;;-1.18;93.25
73101;BME280;61288;53.446;-2.266;2023-04-25T05:50:06;101637.28;;;-1.10;94.41
73101;BME280;61288;53.446;-2.266;2023-04-25T05:52:32;101642.53;;;-1.03;94.21
73101;BME280;61288;53.446;-2.266;2023-04-25T05:54:57;101641.06;;;-0.93;94.44
73101;BME280;61288;53.446;-2.266;2023-04-25T05:57:24;101639.44;;;-0.89;92.79
73101;BME280;61288;53.446;-2.266;2023-04-25T05:59:51;101649.81;;;-0.81;92.96
73101;BME280;61288;53.446;-2.266;2023-04-25T06:02:17;101653.44;;;-0.68;93.13
73101;BME280;61288;53.446;-2.266;2023-04-25T06:04:43;101652.84;;;-0.56;92.89
73101;BME280;61288;53.446;-2.266;2023-04-25T06:07:08;101651.41;;;-0.44;92.64
73101;BME280;61288;53.446;-2.266;2023-04-25T06:09:34;101657.63;;;-0.31;92.30
73101;BME280;61288;53.446;-2.266;2023-04-25T06:12:00;101655.31;;;-0.18;91.80
73101;BME280;61288;53.446;-2.266;2023-04-25T06:14:27;101655.56;;;-0.04;90.76
73101;BME280;61288;53.446;-2.266;2023-04-25T06:16:53;101660.03;;;0.08;90.88
73101;BME280;61288;53.446;-2.266;2023-04-25T06:19:19;101661.13;;;0.19;90.25
73101;BME280;61288;53.446;-2.266;2023-04-25T06:21:45;101661.22;;;0.27;89.66
73101;BME280;61288;53.446;-2.266;2023-04-25T06:24:10;101661.47;;;0.39;88.57
73101;BME280;61288;53.446;-2.266;2023-04-25T06:26:37;101664.34;;;0.60;87.30
73101;BME280;61288;53.446;-2.266;2023-04-25T06:29:02;101664.63;;;0.77;85.97
73101;BME280;61288;53.446;-2.266;2023-04-25T06:31:28;101667.47;;;0.97;86.14
73101;BME280;61288;53.446;-2.266;2023-04-25T06:33:58;101656.72;;;1.18;84.30
73101;BME280;61288;53.446;-2.266;2023-04-25T06:36:23;101657.75;;;1.31;83.41
73101;BME280;61288;53.446;-2.266;2023-04-25T06:38:51;101653.09;;;1.67;82.49
73101;BME280;61288;53.446;-2.266;2023-04-25T06:41:18;101656.00;;;1.99;80.19
73101;BME280;61288;53.446;-2.266;2023-04-25T06:43:44;101666.72;;;2.54;79.42
73101;BME280;61288;53.446;-2.266;2023-04-25T06:46:09;101663.59;;;2.91;78.15
73101;BME280;61288;53.446;-2.266;2023-04-25T06:48:35;101669.75;;;3.17;76.00
73101;BME280;61288;53.446;-2.266;2023-04-25T06:51:01;101668.06;;;3.21;75.49
73101;BME280;61288;53.446;-2.266;2023-04-25T06:53:27;101676.69;;;3.39;76.32
73101;BME280;61288;53.446;-2.266;2023-04-25T06:55:52;101675.81;;;3.35;74.79
73101;BME280;61288;53.446;-2.266;2023-04-25T06:58:18;101680.97;;;3.44;75.84
73101;BME280;61288;53.446;-2.266;2023-04-25T07:00:44;101683.63;;;3.60;74.19
73101;BME280;61288;53.446;-2.266;2023-04-25T07:03:10;101672.56;;;3.76;72.77
73101;BME280;61288;53.446;-2.266;2023-04-25T07:05:36;101677.75;;;3.83;71.59
73101;BME280;61288;53.446;-2.266;2023-04-25T07:08:02;101687.09;;;3.71;71.52
73101;BME280;61288;53.446;-2.266;2023-04-25T07:10:28;101686.16;;;3.54;72.05
73101;BME280;61288;53.446;-2.266;2023-04-25T07:12:54;101690.41;;;3.47;72.27
73101;BME280;61288;53.446;-2.266;2023-04-25T07:15:19;101693.81;;;3.46;71.32
73101;BME280;61288;53.446;-2.266;2023-04-25T07:17:44;101695.56;;;3.63;72.52
73101;BME280;61288;53.446;-2.266;2023-04-25T07:20:10;101688.88;;;3.96;71.92
73101;BME280;61288;53.446;-2.266;2023-04-25T07:22:36;101685.53;;;4.39;71.31
73101;BME280;61288;53.446;-2.266;2023-04-25T07:25:01;101689.00;;;4.67;68.65
73101;BME280;61288;53.446;-2.266;2023-04-25T07:27:27;101690.72;;;4.82;67.74
73101;BME280;61288;53.446;-2.266;2023-04-25T07:29:54;101690.69;;;4.99;68.24
73101;BME280;61288;53.446;-2.266;2023-04-25T07:32:20;101697.50;;;5.05;65.56
73101;BME280;61288;53.446;-2.266;2023-04-25T07:34:45;101696.66;;;5.18;65.47
73101;BME280;61288;53.446;-2.266;2023-04-25T07:37:11;101692.16;;;5.83;63.92
73101;BME280;61288;53.446;-2.266;2023-04-25T07:39:37;101691.19;;;5.99;62.44
73101;BME280;61288;53.446;-2.266;2023-04-25T07:42:03;101691.22;;;5.96;61.12
73101;BME280;61288;53.446;-2.266;2023-04-25T07:44:29;101693.81;;;5.91;62.62
73101;BME280;61288;53.446;-2.266;2023-04-25T07:46:55;101698.94;;;5.95;61.40
73101;BME280;61288;53.446;-2.266;2023-04-25T07:49:21;101702.31;;;6.17;60.29
73101;BME280;61288;53.446;-2.266;2023-04-25T07:51:46;101708.34;;;6.11;59.82
73101;BME280;61288;53.446;-2.266;2023-04-25T07:54:14;101705.00;;;5.86;61.54
73101;BME280;61288;53.446;-2.266;2023-04-25T07:56:40;101702.50;;;5.62;61.01
73101;BME280;61288;53.446;-2.266;2023-04-25T07:59:05;101711.00;;;5.78;61.37
73101;BME280;61288;53.446;-2.266;2023-04-25T08:01:31;101704.06;;;5.99;60.37
73101;BME280;61288;53.446;-2.266;2023-04-25T08:03:56;101702.38;;;5.95;60.02
73101;BME280;61288;53.446;-2.266;2023-04-25T08:06:23;101710.22;;;5.66;59.71
73101;BME280;61288;53.446;-2.266;2023-04-25T08:08:48;101712.84;;;5.55;59.03
73101;BME280;61288;53.446;-2.266;2023-04-25T08:11:14;101706.00;;;5.54;60.13
73101;BME280;61288;53.446;-2.266;2023-04-25T08:13:40;101703.38;;;5.61;58.11
73101;BME280;61288;53.446;-2.266;2023-04-25T08:16:07;101710.19;;;5.73;60.34
73101;BME280;61288;53.446;-2.266;2023-04-25T08:18:33;101712.66;;;6.00;60.33
73101;BME280;61288;53.446;-2.266;2023-04-25T08:20:59;101715.19;;;6.14;59.03
73101;BME280;61288;53.446;-2.266;2023-04-25T08:23:25;101720.31;;;6.15;57.74
73101;BME280;61288;53.446;-2.266;2023-04-25T08:25:51;101721.22;;;6.03;58.18
73101;BME280;61288;53.446;-2.266;2023-04-25T08:28:17;101717.66;;;6.31;57.22
73101;BME280;61288;53.446;-2.266;2023-04-25T08:30:44;101719.94;;;6.70;55.65
73101;BME280;61288;53.446;-2.266;2023-04-25T08:33:09;101724.94;;;6.91;56.83
73101;BME280;61288;53.446;-2.266;2023-04-25T08:35:36;101716.88;;;7.26;54.72
73101;BME280;61288;53.446;-2.266;2023-04-25T08:38:01;101721.25;;;7.92;52.81
73101;BME280;61288;53.446;-2.266;2023-04-25T08:40:28;101712.34;;;8.75;50.11
73101;BME280;61288;53.446;-2.266;2023-04-25T08:42:57;101712.53;;;9.60;49.07
73101;BME280;61288;53.446;-2.266;2023-04-25T08:45:22;101717.75;;;10.38;46.62
73101;BME280;61288;53.446;-2.266;2023-04-25T08:47:51;101723.81;;;10.75;47.05
73101;BME280;61288;53.446;-2.266;2023-04-25T08:50:17;101729.41;;;11.27;45.37
73101;BME280;61288;53.446;-2.266;2023-04-25T08:52:46;101732.13;;;11.54;45.64
73101;BME280;61288;53.446;-2.266;2023-04-25T08:55:13;101735.41;;;11.61;45.32
73101;BME280;61288;53.446;-2.266;2023-04-25T08:57:40;101740.13;;;11.78;44.12
73101;BME280;61288;53.446;-2.266;2023-04-25T09:00:10;101736.69;;;12.08;43.49
73101;BME280;61288;53.446;-2.266;2023-04-25T09:02:39;101741.03;;;12.07;41.77
73101;BME280;61288;53.446;-2.266;2023-04-25T09:05:06;101729.31;;;13.03;42.55
73101;BME280;61288;53.446;-2.266;2023-04-25T09:07:32;101739.66;;;13.55;40.80
73101;BME280;61288;53.446;-2.266;2023-04-25T09:09:58;101736.72;;;14.33;37.63
73101;BME280;61288;53.446;-2.266;2023-04-25T09:12:29;101728.56;;;14.85;38.84
73101;BME280;61288;53.446;-2.266;2023-04-25T09:15:21;101744.59;;;15.97;36.75
73101;BME280;61288;53.446;-2.266;2023-04-25T09:17:58;101740.06;;;16.01;35.07
73101;BME280;61288;53.446;-2.266;2023-04-25T09:20:24;101740.19;;;16.89;34.78
73101;BME280;61288;53.446;-2.266;2023-04-25T09:23:01;101743.34;;;16.96;32.92
73101;BME280;61288;53.446;-2.266;2023-04-25T09:25:34;101737.16;;;17.14;33.30
73101;BME280;61288;53.446;-2.266;2023-04-25T09:28:04;101727.84;;;16.73;33.47
73101;BME280;61288;53.446;-2.266;2023-04-25T09:30:31;101729.88;;;17.03;32.71
73101;BME280;61288;53.446;-2.266;2023-04-25T09:33:04;101725.94;;;16.95;33.00
73101;BME280;61288;53.446;-2.266;2023-04-25T09:35:43;101729.63;;;16.55;33.61
73101;BME280;61288;53.446;-2.266;2023-04-25T09:38:14;101736.25;;;16.63;34.27
73101;BME280;61288;53.446;-2.266;2023-04-25T09:40:44;101729.31;;;16.97;34.37
73101;BME280;61288;53.446;-2.266;2023-04-25T09:43:20;101730.00;;;16.65;31.05
73101;BME280;61288;53.446;-2.266;2023-04-25T09:45:47;101731.44;;;17.08;33.11
73101;BME280;61288;53.446;-2.266;2023-04-25T09:48:19;101728.75;;;16.00;33.12
73101;BME280;61288;53.446;-2.266;2023-04-25T09:51:04;101725.81;;;15.09;33.86
73101;BME280;61288;53.446;-2.266;2023-04-25T09:53:32;101722.78;;;14.79;34.32
73101;BME280;61288;53.446;-2.266;2023-04-25T09:56:00;101726.06;;;14.17;33.75
73101;BME280;61288;53.446;-2.266;2023-04-25T09:58:29;101724.69;;;13.62;35.01
73101;BME280;61288;53.446;-2.266;2023-04-25T10:01:01;101733.16;;;13.43;36.34
73101;BME280;61288;53.446;-2.266;2023-04-25T10:03:32;101724.00;;;13.06;37.14
73101;BME280;61288;53.446;-2.266;2023-04-25T10:05:59;101729.78;;;12.62;38.02
73101;BME280;61288;53.446;-2.266;2023-04-25T10:08:35;101731.88;;;12.24;38.43
73101;BME280;61288;53.446;-2.266;2023-04-25T10:11:05;101734.88;;;12.92;41.06
73101;BME280;61288;53.446;-2.266;2023-04-25T10:13:32;101731.59;;;12.87;39.18
73101;BME280;61288;53.446;-2.266;2023-04-25T10:15:59;101735.78;;;13.17;40.03
73101;BME280;61288;53.446;-2.266;2023-04-25T10:18:27;101741.19;;;14.07;37.44
73101;BME280;61288;53.446;-2.266;2023-04-25T10:20:54;101735.41;;;14.23;35.84
73101;BME280;61288;53.446;-2.266;2023-04-25T10:23:20;101728.53;;;14.20;35.53
73101;BME280;61288;53.446;-2.266;2023-04-25T10:25:48;101723.56;;;13.68;35.90
73101;BME280;61288;53.446;-2.266;2023-04-25T10:28:14;101728.66;;;13.95;37.30
73101;BME280;61288;53.446;-2.266;2023-04-25T10:31:00;101727.56;;;14.45;36.91
73101;BME280;61288;53.446;-2.266;2023-04-25T10:33:40;101714.56;;;14.66;35.79
73101;BME280;61288;53.446;-2.266;2023-04-25T10:36:17;101720.41;;;14.72;35.75
73101;BME280;61288;53.446;-2.266;2023-04-25T10:38:44;101721.38;;;15.32;35.31
73101;BME280;61288;53.446;-2.266;2023-04-25T10:41:11;101721.34;;;15.13;33.99
73101;BME280;61288;53.446;-2.266;2023-04-25T10:43:39;101713.63;;;14.46;34.03
73101;BME280;61288;53.446;-2.266;2023-04-25T10:48:49;101714.53;;;13.04;37.57
73101;BME280;61288;53.446;-2.266;2023-04-25T10:53:44;101709.13;;;13.83;35.88
73101;BME280;61288;53.446;-2.266;2023-04-25T10:56:20;101713.72;;;14.65;38.73
73101;BME280;61288;53.446;-2.266;2023-04-25T10:58:47;101712.13;;;14.83;31.71
73101;BME280;61288;53.446;-2.266;2023-04-25T11:01:19;101693.03;;;14.83;33.48
73101;BME280;61288;53.446;-2.266;2023-04-25T11:03:45;101715.06;;;14.53;34.21
73101;BME280;61288;53.446;-2.266;2023-04-25T11:06:34;101710.31;;;14.20;36.69
73101;BME280;61288;53.446;-2.266;2023-04-25T11:09:03;101710.06;;;14.04;36.18
73101;BME280;61288;53.446;-2.266;2023-04-25T11:11:36;101701.59;;;13.75;36.47
73101;BME280;61288;53.446;-2.266;2023-04-25T11:14:01;101706.97;;;13.48;36.38
73101;BME280;61288;53.446;-2.266;2023-04-25T11:16:27;101714.13;;;13.16;37.92
73101;BME280;61288;53.446;-2.266;2023-04-25T11:18:53;101703.75;;;12.64;38.15
73101;BME280;61288;53.446;-2.266;2023-04-25T11:21:18;101708.84;;;12.40;39.06
73101;BME280;61288;53.446;-2.266;2023-04-25T11:23:45;101702.34;;;12.26;39.07
73101;BME280;61288;53.446;-2.266;2023-04-25T11:26:12;101703.31;;;11.94;40.43
73101;BME280;61288;53.446;-2.266;2023-04-25T11:28:39;101705.78;;;11.98;40.21
73101;BME280;61288;53.446;-2.266;2023-04-25T11:31:04;101694.31;;;12.06;38.40
73101;BME280;61288;53.446;-2.266;2023-04-25T11:33:30;101696.78;;;12.64;41.31
73101;BME280;61288;53.446;-2.266;2023-04-25T11:35:56;101700.59;;;13.79;40.95
73101;BME280;61288;53.446;-2.266;2023-04-25T11:38:22;101688.41;;;14.47;35.86
73101;BME280;61288;53.446;-2.266;2023-04-25T11:40:51;101688.75;;;14.59;33.81
73101;BME280;61288;53.446;-2.266;2023-04-25T11:43:18;101694.91;;;14.14;37.38
73101;BME280;61288;53.446;-2.266;2023-04-25T11:45:49;101694.88;;;14.15;37.40
73101;BME280;61288;53.446;-2.266;2023-04-25T11:48:16;101684.59;;;13.89;35.40
73101;BME280;61288;53.446;-2.266;2023-04-25T11:50:42;101693.78;;;13.27;37.07
73101;BME280;61288;53.446;-2.266;2023-04-25T11:53:08;101688.13;;;13.16;37.92
73101;BME280;61288;53.446;-2.266;2023-04-25T11:55:35;101695.22;;;12.85;35.04
73101;BME280;61288;53.446;-2.266;2023-04-25T11:58:01;101683.53;;;12.47;36.54
73101;BME280;61288;53.446;-2.266;2023-04-25T12:00:28;101680.97;;;12.70;37.21
73101;BME280;61288;53.446;-2.266;2023-04-25T12:02:55;101692.56;;;12.62;39.98
73101;BME280;61288;53.446;-2.266;2023-04-25T12:05:29;101687.63;;;13.30;39.73
73101;BME280;61288;53.446;-2.266;2023-04-25T12:07:56;101678.75;;;14.49;39.48
73101;BME280;61288;53.446;-2.266;2023-04-25T12:10:24;101684.88;;;15.30;35.71
73101;BME280;61288;53.446;-2.266;2023-04-25T12:12:50;101679.63;;;14.91;33.54
73101;BME280;61288;53.446;-2.266;2023-04-25T12:15:24;101682.72;;;14.57;36.78
73101;BME280;61288;53.446;-2.266;2023-04-25T12:17:51;101686.53;;;14.28;37.81
73101;BME280;61288;53.446;-2.266;2023-04-25T12:20:20;101679.22;;;13.93;35.23
73101;BME280;61288;53.446;-2.266;2023-04-25T12:22:50;101688.72;;;13.48;37.05
73101;BME280;61288;53.446;-2.266;2023-04-25T12:25:38;101685.91;;;12.80;38.23
73101;BME280;61288;53.446;-2.266;2023-04-25T12:28:21;101689.78;;;12.39;39.24
73101;BME280;61288;53.446;-2.266;2023-04-25T12:31:10;101685.06;;;13.28;37.37
73101;BME280;61288;53.446;-2.266;2023-04-25T12:33:36;101685.28;;;13.94;33.82
73101;BME280;61288;53.446;-2.266;2023-04-25T12:36:04;101684.44;;;14.58;32.95
73101;BME280;61288;53.446;-2.266;2023-04-25T12:38:38;101678.50;;;14.55;30.28
73101;BME280;61288;53.446;-2.266;2023-04-25T12:41:04;101674.09;;;14.98;29.99
73101;BME280;61288;53.446;-2.266;2023-04-25T12:43:30;101676.19;;;15.30;35.26
73101;BME280;61288;53.446;-2.266;2023-04-25T12:45:56;101672.81;;;15.85;36.97
73101;BME280;61288;53.446;-2.266;2023-04-25T12:48:22;101675.56;;;16.19;30.26